St Paul Island Airport St Paul Island US
ICAO: PASN
IATA:
Category: Medium
Scheduled Services:

Elevation: 63 ft
TransAlt. 0 ft.

Airport Communications:
ASOS:135.75
ANCHORAGE CNTR:119.1
CTAF:122.3
COLD BAY RDO:122.45
NWS OBSVR:122

PASN Zoom In..

If you have problems with the map follow the link
https://www.worldairports.se/pages/airport.php?
ICAO=PASN

Runways:

(A) RW 18 length 6500 ft width 150 ft
---- / hdg 180

(B) RW 36 length 6500 ft width 150 ft
ILS 109.90 / hdg 360

Location; PASN
Day. 14 / Time. 15.53 Zulu
* Altimeter: 28.97
* Temperature: 03° c. 37.4°f.
* Wind from: 050° Speed 22 kn with Gusts up to 34 kn.
Dewpoint: -01° c.
Visibility: 10 Statute Miles.
Clouds: Broken 2900 ft.
Clouds: Overcast 3500 ft.

PASN 141553Z AUTO 05022G34KT 10SM BKN029 OVC035 03/M01 A2897 RMK AO2 PK WND 04035/1508 SLP810 T00331011 TSNO


Wind From 050°
Speed 22 kn.

 
 
jpsmedia worldairports.se 2019   terms of use